Time;durP1;ratioP1;P1;durP2;ratioP2;P2;SDS_P1;SDS_P2;PMS_P1;PMS_P2;Temp;Humidity;BMP_temperature;BMP_pressure;BME280_temperature;BME280_humidity;BME280_pressure;Samples;Min_cycle;Max_cycle;Signal;HPM_P1;HPM_P2
2023/08/07 00:01:21;;;;;;;1.98;0.70;;;;;;;;;;5033205;28;20107;-78
2023/08/07 00:03:47;;;;;;;1.10;0.52;;;;;;;;;;5028656;28;20084;-78
2023/08/07 00:06:15;;;;;;;1.30;0.60;;;;;;;;;;5030451;28;20053;-77
2023/08/07 00:08:42;;;;;;;2.03;0.93;;;;;;;;;;5032430;28;20447;-78
2023/08/07 00:11:09;;;;;;;1.40;0.70;;;;;;;;;;5032322;28;20508;-78
2023/08/07 00:13:36;;;;;;;1.98;0.80;;;;;;;;;;5032923;28;20132;-77
2023/08/07 00:16:04;;;;;;;2.88;0.70;;;;;;;;;;5031290;28;20101;-77
2023/08/07 00:18:30;;;;;;;1.92;1.00;;;;;;;;;;5032074;28;20515;-78
2023/08/07 00:20:57;;;;;;;1.15;0.60;;;;;;;;;;5032462;28;20084;-78
2023/08/07 00:23:25;;;;;;;1.90;0.80;;;;;;;;;;5032593;28;20060;-77
2023/08/07 00:25:52;;;;;;;1.85;0.80;;;;;;;;;;5032422;28;20050;-78
2023/08/07 00:28:18;;;;;;;1.83;0.90;;;;;;;;;;5032388;28;20057;-77
2023/08/07 00:30:45;;;;;;;2.35;0.98;;;;;;;;;;5032386;28;20046;-77
2023/08/07 00:33:12;;;;;;;1.83;0.77;;;;;;;;;;5032404;28;20048;-77
2023/08/07 00:35:38;;;;;;;4.18;0.63;;;;;;;;;;5032762;28;20045;-77
2023/08/07 00:38:05;;;;;;;2.80;0.77;;;;;;;;;;5033074;28;20136;-78
2023/08/07 00:40:38;;;;;;;1.88;0.80;;;;;;;;;;5032684;28;20443;-77
2023/08/07 00:43:05;;;;;;;3.53;1.13;;;;;;;;;;5032381;28;20531;-78
2023/08/07 00:45:37;;;;;;;1.02;0.63;;;;;;;;;;5032330;28;20053;-78
2023/08/07 00:48:04;;;;;;;2.08;0.90;;;;;;;;;;5032286;28;20050;-78
2023/08/07 00:50:30;;;;;;;3.65;1.00;;;;;;;;;;5032243;28;20590;-78
2023/08/07 00:52:57;;;;;;;2.05;0.85;;;;;;;;;;5032297;28;20076;-77
2023/08/07 00:55:24;;;;;;;2.13;1.08;;;;;;;;;;5032456;28;20056;-77
2023/08/07 00:57:52;;;;;;;2.63;1.00;;;;;;;;;;5035204;28;20054;-77
2023/08/07 01:00:20;;;;;;;3.50;1.27;;;;;;;;;;5036525;28;20435;-77
2023/08/07 01:02:48;;;;;;;1.75;0.80;;;;;;;;;;5036429;28;20049;-78
2023/08/07 01:05:15;;;;;;;2.45;0.90;;;;;;;;;;5037065;28;20041;-77
2023/08/07 01:07:42;;;;;;;2.05;0.85;;;;;;;;;;5037228;28;20052;-77
2023/08/07 01:10:09;;;;;;;1.73;0.90;;;;;;;;;;5038281;28;20273;-77
2023/08/07 01:12:43;;;;;;;1.55;0.80;;;;;;;;;;5038119;28;20075;-78
2023/08/07 01:15:15;;;;;;;3.25;1.10;;;;;;;;;;5038100;28;20088;-77
2023/08/07 01:17:44;;;;;;;1.60;0.73;;;;;;;;;;5040003;28;20049;-77
2023/08/07 01:20:12;;;;;;;1.77;1.00;;;;;;;;;;5037560;28;20053;-78
2023/08/07 01:22:40;;;;;;;3.05;1.40;;;;;;;;;;5035274;28;20045;-77
2023/08/07 01:25:07;;;;;;;1.75;0.80;;;;;;;;;;5035705;28;20042;-77
2023/08/07 01:27:37;;;;;;;3.00;1.27;;;;;;;;;;5035725;28;20080;-78
2023/08/07 01:30:13;;;;;;;2.42;1.10;;;;;;;;;;5034951;28;20454;-77
2023/08/07 01:32:48;;;;;;;1.98;0.80;;;;;;;;;;5036121;28;20281;-75
2023/08/07 01:35:18;;;;;;;1.98;0.88;;;;;;;;;;5036067;28;20132;-77
2023/08/07 01:37:47;;;;;;;2.23;0.93;;;;;;;;;;5036020;28;20504;-76
2023/08/07 01:40:14;;;;;;;2.30;0.98;;;;;;;;;;5034209;28;20133;-77
2023/08/07 01:42:41;;;;;;;2.38;0.80;;;;;;;;;;5033738;28;20045;-77
2023/08/07 01:45:08;;;;;;;2.08;0.82;;;;;;;;;;5034536;28;20069;-76
2023/08/07 01:47:35;;;;;;;1.85;1.00;;;;;;;;;;5033885;28;20474;-76
2023/08/07 01:50:02;;;;;;;1.70;0.80;;;;;;;;;;5034266;28;20053;-77
2023/08/07 01:52:28;;;;;;;2.25;0.90;;;;;;;;;;5033778;28;20045;-76
2023/08/07 01:54:56;;;;;;;3.13;0.80;;;;;;;;;;5033638;28;20305;-77
2023/08/07 01:57:23;;;;;;;2.47;0.90;;;;;;;;;;5033890;28;20462;-77
2023/08/07 01:59:50;;;;;;;1.50;0.80;;;;;;;;;;5035649;28;20080;-76
2023/08/07 02:02:16;;;;;;;3.08;0.93;;;;;;;;;;5034708;28;20539;-75
2023/08/07 02:04:43;;;;;;;1.52;0.70;;;;;;;;;;5033717;28;20124;-76
2023/08/07 02:07:09;;;;;;;2.13;0.90;;;;;;;;;;5033768;28;20513;-76
2023/08/07 02:09:36;;;;;;;1.85;0.93;;;;;;;;;;5032671;28;20494;-77
2023/08/07 02:12:05;;;;;;;2.38;1.00;;;;;;;;;;5033531;28;20043;-77
2023/08/07 02:14:31;;;;;;;2.05;0.90;;;;;;;;;;5032958;28;20056;-77
2023/08/07 02:16:58;;;;;;;2.13;0.88;;;;;;;;;;5033177;28;20049;-78
2023/08/07 02:19:24;;;;;;;2.97;1.17;;;;;;;;;;5033604;28;20049;-77
2023/08/07 02:21:51;;;;;;;2.03;1.00;;;;;;;;;;5033144;28;20053;-77
2023/08/07 02:24:19;;;;;;;3.38;1.15;;;;;;;;;;5033085;28;20132;-77
2023/08/07 02:26:46;;;;;;;2.42;1.30;;;;;;;;;;5032986;28;20363;-77
2023/08/07 02:29:13;;;;;;;2.35;1.00;;;;;;;;;;5033024;28;20049;-77
2023/08/07 02:31:40;;;;;;;2.88;0.88;;;;;;;;;;5032958;28;20042;-76
2023/08/07 02:34:07;;;;;;;2.22;1.00;;;;;;;;;;5033209;28;20128;-76
2023/08/07 02:36:34;;;;;;;2.50;1.10;;;;;;;;;;5033004;28;20107;-77
2023/08/07 02:39:01;;;;;;;2.78;1.13;;;;;;;;;;5032489;28;20551;-78
2023/08/07 02:41:27;;;;;;;2.22;1.17;;;;;;;;;;5032541;28;20041;-78
2023/08/07 02:43:54;;;;;;;1.98;0.90;;;;;;;;;;5028027;28;20137;-77
2023/08/07 02:46:22;;;;;;;2.92;1.30;;;;;;;;;;5032516;28;20045;-77
2023/08/07 02:48:48;;;;;;;3.33;0.90;;;;;;;;;;5032540;28;20053;-76
2023/08/07 02:51:15;;;;;;;2.95;1.17;;;;;;;;;;5032315;28;20493;-76
2023/08/07 02:53:41;;;;;;;2.92;1.20;;;;;;;;;;5032240;28;20053;-77
2023/08/07 02:56:08;;;;;;;2.65;1.10;;;;;;;;;;5032133;28;20053;-77
2023/08/07 02:58:34;;;;;;;2.45;1.17;;;;;;;;;;5032293;28;20057;-77
2023/08/07 03:01:04;;;;;;;3.30;1.40;;;;;;;;;;5031971;28;20507;-77
2023/08/07 03:03:32;;;;;;;2.17;0.90;;;;;;;;;;5032991;28;20056;-76
2023/08/07 03:05:59;;;;;;;2.60;1.02;;;;;;;;;;5033094;28;20046;-76
2023/08/07 03:08:25;;;;;;;1.88;1.10;;;;;;;;;;5032297;28;20132;-76
2023/08/07 03:10:53;;;;;;;2.92;1.23;;;;;;;;;;5031902;28;20519;-77
2023/08/07 03:13:19;;;;;;;2.70;1.10;;;;;;;;;;5032041;28;20048;-76
2023/08/07 03:15:49;;;;;;;2.22;1.20;;;;;;;;;;5032039;28;20124;-77
2023/08/07 03:18:15;;;;;;;2.70;1.20;;;;;;;;;;5031779;28;20480;-76
2023/08/07 03:20:43;;;;;;;2.65;1.02;;;;;;;;;;5031802;28;20057;-77
2023/08/07 03:23:10;;;;;;;2.40;1.17;;;;;;;;;;5031733;28;20057;-77
2023/08/07 03:25:36;;;;;;;2.88;1.02;;;;;;;;;;5032012;28;20492;-76
2023/08/07 03:28:04;;;;;;;3.50;1.15;;;;;;;;;;5032053;28;20136;-77
2023/08/07 03:30:30;;;;;;;2.38;1.10;;;;;;;;;;5031645;28;20049;-77
2023/08/07 03:32:57;;;;;;;2.47;1.10;;;;;;;;;;5031927;28;20132;-77
2023/08/07 03:35:23;;;;;;;3.28;1.30;;;;;;;;;;5031880;28;20129;-77
2023/08/07 03:37:51;;;;;;;3.22;1.45;;;;;;;;;;5031711;28;20076;-77
2023/08/07 03:40:18;;;;;;;2.38;1.17;;;;;;;;;;5031775;28;20412;-78
2023/08/07 03:42:44;;;;;;;2.72;1.35;;;;;;;;;;5031527;28;20591;-77
2023/08/07 03:45:11;;;;;;;2.35;1.30;;;;;;;;;;5032148;28;20128;-77
2023/08/07 03:47:37;;;;;;;3.35;1.33;;;;;;;;;;5031845;28;20049;-76
2023/08/07 03:50:05;;;;;;;4.20;1.50;;;;;;;;;;5031427;28;20049;-76
2023/08/07 03:52:31;;;;;;;2.30;1.13;;;;;;;;;;5031207;28;20054;-76
2023/08/07 03:54:59;;;;;;;2.63;1.13;;;;;;;;;;5031358;28;20041;-77
2023/08/07 03:57:26;;;;;;;2.88;1.30;;;;;;;;;;5031549;28;20045;-76
2023/08/07 03:59:54;;;;;;;2.78;1.33;;;;;;;;;;5031539;28;20510;-77
2023/08/07 04:02:20;;;;;;;2.85;1.10;;;;;;;;;;5031859;28;20050;-76
2023/08/07 04:04:47;;;;;;;2.78;1.30;;;;;;;;;;5031591;28;20124;-77
2023/08/07 04:07:13;;;;;;;2.10;0.95;;;;;;;;;;5031926;28;20050;-77
2023/08/07 04:09:40;;;;;;;2.95;1.38;;;;;;;;;;5032563;28;20133;-77
2023/08/07 04:12:09;;;;;;;2.03;1.00;;;;;;;;;;5032518;28;20132;-77
2023/08/07 04:14:35;;;;;;;2.97;1.30;;;;;;;;;;5033404;28;20092;-77
2023/08/07 04:19:31;;;;;;;3.17;1.15;;;;;;;;;;5032685;22;20060;-77
2023/08/07 04:21:58;;;;;;;5.20;1.33;;;;;;;;;;5014203;28;20427;-77
2023/08/07 04:24:24;;;;;;;2.35;1.20;;;;;;;;;;5014556;28;20046;-77
2023/08/07 04:26:51;;;;;;;2.40;1.10;;;;;;;;;;5015003;28;20105;-77
2023/08/07 04:29:19;;;;;;;2.53;1.30;;;;;;;;;;5014504;28;20065;-76
2023/08/07 04:31:46;;;;;;;3.05;1.20;;;;;;;;;;5016293;28;20222;-77
2023/08/07 04:34:13;;;;;;;3.08;1.20;;;;;;;;;;5019836;28;20128;-77
2023/08/07 04:36:39;;;;;;;2.97;1.20;;;;;;;;;;5019607;28;20050;-77
2023/08/07 04:39:07;;;;;;;2.95;1.35;;;;;;;;;;5017121;28;20050;-77
2023/08/07 04:41:33;;;;;;;2.95;1.20;;;;;;;;;;5016199;28;20050;-77
2023/08/07 04:44:00;;;;;;;2.55;1.25;;;;;;;;;;5017759;28;20064;-77
2023/08/07 04:46:28;;;;;;;2.85;1.20;;;;;;;;;;5028093;28;20510;-77
2023/08/07 04:48:54;;;;;;;2.72;1.20;;;;;;;;;;5021590;28;20042;-76
2023/08/07 04:51:21;;;;;;;2.78;1.15;;;;;;;;;;5024902;28;20416;-75
2023/08/07 04:53:50;;;;;;;4.03;1.75;;;;;;;;;;5024345;28;20045;-75
2023/08/07 04:56:17;;;;;;;1.92;0.90;;;;;;;;;;5032692;28;20092;-76
2023/08/07 04:58:43;;;;;;;3.05;1.30;;;;;;;;;;5028557;28;20121;-76
2023/08/07 05:01:10;;;;;;;2.58;1.20;;;;;;;;;;5031217;28;20507;-76
2023/08/07 05:03:38;;;;;;;4.75;1.48;;;;;;;;;;5035170;28;20523;-75
2023/08/07 05:06:05;;;;;;;2.90;1.33;;;;;;;;;;5035140;28;20045;-77
2023/08/07 05:08:32;;;;;;;3.22;1.20;;;;;;;;;;5035004;28;20132;-77
2023/08/07 05:10:59;;;;;;;4.30;1.95;;;;;;;;;;5033093;28;20504;-77
2023/08/07 05:13:25;;;;;;;2.75;1.15;;;;;;;;;;5020911;28;20042;-77
2023/08/07 05:15:52;;;;;;;3.63;1.40;;;;;;;;;;5026106;28;20460;-76
2023/08/07 05:18:19;;;;;;;2.85;1.23;;;;;;;;;;5034507;28;20045;-77
2023/08/07 05:20:47;;;;;;;3.10;1.35;;;;;;;;;;5035169;28;20416;-78
2023/08/07 05:23:13;;;;;;;2.67;1.23;;;;;;;;;;5035380;28;20080;-78
2023/08/07 05:25:40;;;;;;;3.50;1.35;;;;;;;;;;5035894;28;20150;-77
2023/08/07 05:28:07;;;;;;;5.72;1.40;;;;;;;;;;5035201;28;20059;-77
2023/08/07 05:30:34;;;;;;;2.22;1.10;;;;;;;;;;5036279;28;20041;-77
2023/08/07 05:33:00;;;;;;;3.72;1.17;;;;;;;;;;5038175;28;20080;-77
2023/08/07 05:35:27;;;;;;;3.53;1.27;;;;;;;;;;5029122;28;20046;-77
2023/08/07 05:37:55;;;;;;;3.88;1.20;;;;;;;;;;5026364;28;20191;-75
2023/08/07 05:40:21;;;;;;;4.10;1.30;;;;;;;;;;5026591;28;20415;-76
2023/08/07 05:42:48;;;;;;;4.85;1.63;;;;;;;;;;5034621;28;20132;-77
2023/08/07 05:45:14;;;;;;;3.08;1.20;;;;;;;;;;5035012;28;20056;-76
2023/08/07 05:47:41;;;;;;;3.35;1.50;;;;;;;;;;5034461;28;20080;-77
2023/08/07 05:50:08;;;;;;;3.55;1.20;;;;;;;;;;5034487;28;20060;-77
2023/08/07 05:52:35;;;;;;;3.10;1.30;;;;;;;;;;5034236;28;20053;-77
2023/08/07 05:55:03;;;;;;;2.65;1.15;;;;;;;;;;5034051;28;20051;-77
2023/08/07 05:57:30;;;;;;;4.45;1.20;;;;;;;;;;5034239;28;20083;-77
2023/08/07 05:59:56;;;;;;;2.35;1.13;;;;;;;;;;5034690;28;20071;-77
2023/08/07 06:02:23;;;;;;;2.83;1.33;;;;;;;;;;5035125;28;20053;-76
2023/08/07 06:04:49;;;;;;;4.25;1.42;;;;;;;;;;5034219;28;20041;-77
2023/08/07 06:07:18;;;;;;;3.05;1.33;;;;;;;;;;5015953;28;20126;-76
2023/08/07 06:09:44;;;;;;;3.50;1.42;;;;;;;;;;5027339;28;20050;-77
2023/08/07 06:12:13;;;;;;;4.10;1.45;;;;;;;;;;5030443;28;20052;-76
2023/08/07 06:14:39;;;;;;;3.08;1.20;;;;;;;;;;5033674;28;20049;-76
2023/08/07 06:17:06;;;;;;;2.20;1.20;;;;;;;;;;5034703;28;20055;-76
2023/08/07 06:19:32;;;;;;;3.30;1.23;;;;;;;;;;5033386;28;20072;-76
2023/08/07 06:21:59;;;;;;;4.20;1.40;;;;;;;;;;5033395;28;20076;-76
2023/08/07 06:24:26;;;;;;;3.47;1.33;;;;;;;;;;5033459;28;20049;-76
2023/08/07 06:26:53;;;;;;;3.33;1.20;;;;;;;;;;5034162;28;20091;-77
2023/08/07 06:29:20;;;;;;;3.88;1.35;;;;;;;;;;5033271;28;20524;-76
2023/08/07 06:31:47;;;;;;;3.08;1.10;;;;;;;;;;5012136;28;20050;-77
2023/08/07 06:34:14;;;;;;;2.60;1.23;;;;;;;;;;5008473;28;20491;-77
2023/08/07 06:36:40;;;;;;;4.18;1.42;;;;;;;;;;5009958;28;20121;-77
2023/08/07 06:39:07;;;;;;;7.07;2.05;;;;;;;;;;5009984;28;20567;-77
2023/08/07 06:41:34;;;;;;;2.83;1.35;;;;;;;;;;5021304;28;20100;-76
2023/08/07 06:44:00;;;;;;;4.13;1.98;;;;;;;;;;5013374;28;20523;-76
2023/08/07 06:46:28;;;;;;;3.95;1.10;;;;;;;;;;5003610;28;20050;-76
2023/08/07 06:48:55;;;;;;;3.25;1.70;;;;;;;;;;5013092;28;20424;-77
2023/08/07 06:51:21;;;;;;;4.68;1.30;;;;;;;;;;5012777;28;20516;-76
2023/08/07 06:53:48;;;;;;;3.15;1.10;;;;;;;;;;5006942;28;20056;-76
2023/08/07 06:56:15;;;;;;;2.70;1.17;;;;;;;;;;5015648;28;20045;-77
2023/08/07 06:58:42;;;;;;;3.67;1.30;;;;;;;;;;5025894;28;20064;-76
2023/08/07 07:01:08;;;;;;;2.15;1.05;;;;;;;;;;5033111;28;20073;-77
2023/08/07 07:03:36;;;;;;;3.70;1.10;;;;;;;;;;5032391;28;20419;-77
2023/08/07 07:06:03;;;;;;;3.08;1.10;;;;;;;;;;5032431;28;20046;-77
2023/08/07 07:08:29;;;;;;;4.10;1.52;;;;;;;;;;5032681;28;20053;-77
2023/08/07 07:10:57;;;;;;;2.00;1.02;;;;;;;;;;5032728;28;20085;-77
2023/08/07 07:13:24;;;;;;;3.78;1.50;;;;;;;;;;5033711;28;20049;-77
2023/08/07 07:15:54;;;;;;;2.90;1.40;;;;;;;;;;5033341;28;20049;-77
2023/08/07 07:18:20;;;;;;;3.40;1.37;;;;;;;;;;5033193;28;20052;-77
2023/08/07 07:20:48;;;;;;;3.03;1.17;;;;;;;;;;5009597;28;20481;-76
2023/08/07 07:23:15;;;;;;;3.42;1.30;;;;;;;;;;5012437;28;20097;-77
2023/08/07 07:25:42;;;;;;;3.15;1.17;;;;;;;;;;5012203;28;20042;-76
2023/08/07 07:28:08;;;;;;;2.47;1.10;;;;;;;;;;5012716;28;20221;-77
2023/08/07 07:30:35;;;;;;;2.67;1.38;;;;;;;;;;5004453;28;20045;-76
2023/08/07 07:33:02;;;;;;;2.42;1.00;;;;;;;;;;5010697;28;20050;-78
2023/08/07 07:35:31;;;;;;;3.83;1.48;;;;;;;;;;5011762;28;20050;-78
2023/08/07 07:37:59;;;;;;;3.58;1.58;;;;;;;;;;5015291;28;20042;-79
2023/08/07 07:40:26;;;;;;;3.42;1.55;;;;;;;;;;5028068;28;20045;-78
2023/08/07 07:42:55;;;;;;;2.17;1.25;;;;;;;;;;5028807;28;21841;-79
2023/08/07 07:45:21;;;;;;;4.30;1.42;;;;;;;;;;5029154;28;20534;-79
2023/08/07 07:47:48;;;;;;;2.17;0.90;;;;;;;;;;5017224;28;20496;-77
2023/08/07 07:50:14;;;;;;;2.85;1.30;;;;;;;;;;5004151;28;20137;-80
2023/08/07 07:52:41;;;;;;;2.58;1.40;;;;;;;;;;5010876;28;20041;-79
2023/08/07 07:55:10;;;;;;;4.45;1.20;;;;;;;;;;5012815;28;20076;-78
2023/08/07 07:57:37;;;;;;;3.35;1.38;;;;;;;;;;5023210;28;20492;-78
2023/08/07 08:00:10;;;;;;;3.00;1.27;;;;;;;;;;5010778;28;20165;-78
2023/08/07 08:02:36;;;;;;;2.33;1.13;;;;;;;;;;5006541;28;20050;-78
2023/08/07 08:05:05;;;;;;;2.67;1.17;;;;;;;;;;5010719;28;20124;-77
2023/08/07 08:07:34;;;;;;;2.47;1.10;;;;;;;;;;5018883;28;20057;-78
2023/08/07 08:10:00;;;;;;;3.85;1.60;;;;;;;;;;5021709;28;20602;-79
2023/08/07 08:12:30;;;;;;;2.28;1.13;;;;;;;;;;5022446;28;20133;-79
2023/08/07 08:14:57;;;;;;;3.15;1.20;;;;;;;;;;5027059;28;20046;-78
2023/08/07 08:17:24;;;;;;;2.88;1.25;;;;;;;;;;5025205;28;20043;-78
2023/08/07 08:19:51;;;;;;;3.00;1.50;;;;;;;;;;5012777;28;20042;-79
2023/08/07 08:22:17;;;;;;;2.97;1.27;;;;;;;;;;5029404;28;20076;-77
2023/08/07 08:24:44;;;;;;;2.60;1.33;;;;;;;;;;5029962;28;20041;-78
2023/08/07 08:27:10;;;;;;;2.72;1.13;;;;;;;;;;5030486;28;20052;-79
2023/08/07 08:29:39;;;;;;;2.75;1.20;;;;;;;;;;5026827;28;20274;-78
2023/08/07 08:32:06;;;;;;;3.17;1.30;;;;;;;;;;5020649;28;20111;-78
2023/08/07 08:34:33;;;;;;;3.42;1.10;;;;;;;;;;5022772;28;20041;-78
2023/08/07 08:36:59;;;;;;;3.08;1.20;;;;;;;;;;5022891;28;20556;-78
2023/08/07 08:39:26;;;;;;;2.95;1.40;;;;;;;;;;5020929;28;20419;-77
2023/08/07 08:41:54;;;;;;;3.97;1.48;;;;;;;;;;5018277;28;20076;-77
2023/08/07 08:44:24;;;;;;;2.40;1.15;;;;;;;;;;5023171;28;20042;-77
2023/08/07 08:46:55;;;;;;;2.85;1.25;;;;;;;;;;5021235;28;20152;-78
2023/08/07 08:49:33;;;;;;;3.78;1.27;;;;;;;;;;5026450;28;20099;-77
2023/08/07 08:52:04;;;;;;;3.45;1.40;;;;;;;;;;5017324;28;20073;-78
2023/08/07 08:54:31;;;;;;;3.95;1.30;;;;;;;;;;5017306;28;20056;-76
2023/08/07 08:56:59;;;;;;;3.97;1.70;;;;;;;;;;5025601;28;20045;-78
2023/08/07 08:59:26;;;;;;;3.00;1.20;;;;;;;;;;5025076;28;20088;-77
2023/08/07 09:01:54;;;;;;;2.55;1.30;;;;;;;;;;5026491;28;20064;-76
2023/08/07 09:04:21;;;;;;;2.53;0.90;;;;;;;;;;5032042;28;20072;-77
2023/08/07 09:06:49;;;;;;;5.05;1.77;;;;;;;;;;5022746;28;20101;-77
2023/08/07 09:09:17;;;;;;;4.53;1.30;;;;;;;;;;5023599;28;20056;-78
2023/08/07 09:11:45;;;;;;;2.55;1.40;;;;;;;;;;5020328;28;20311;-77
2023/08/07 09:14:16;;;;;;;4.03;1.23;;;;;;;;;;5020900;28;20052;-76
2023/08/07 09:16:44;;;;;;;5.90;2.63;;;;;;;;;;5026571;28;20045;-77
2023/08/07 09:19:12;;;;;;;5.10;1.40;;;;;;;;;;5024968;28;20093;-78
2023/08/07 09:21:39;;;;;;;4.45;1.30;;;;;;;;;;5024442;28;20062;-77
2023/08/07 09:24:07;;;;;;;3.33;1.60;;;;;;;;;;5019097;28;20052;-77
2023/08/07 09:26:34;;;;;;;2.60;1.30;;;;;;;;;;5022156;28;20050;-78
2023/08/07 09:29:02;;;;;;;3.58;1.90;;;;;;;;;;5023074;28;20562;-77
2023/08/07 09:31:30;;;;;;;3.28;1.50;;;;;;;;;;5015682;28;20544;-78
2023/08/07 09:34:02;;;;;;;3.28;1.20;;;;;;;;;;5017124;28;20068;-77
2023/08/07 09:36:32;;;;;;;4.05;1.60;;;;;;;;;;5021930;28;20072;-77
2023/08/07 09:39:01;;;;;;;4.32;1.77;;;;;;;;;;5022970;28;20037;-77
2023/08/07 09:41:29;;;;;;;2.78;1.23;;;;;;;;;;5023576;28;20046;-77
2023/08/07 09:43:56;;;;;;;3.75;1.55;;;;;;;;;;5024225;28;20350;-77
2023/08/07 09:46:23;;;;;;;3.35;1.27;;;;;;;;;;5028117;28;20049;-78
2023/08/07 09:48:49;;;;;;;4.43;1.67;;;;;;;;;;5026240;28;20046;-78
2023/08/07 09:51:16;;;;;;;3.58;1.52;;;;;;;;;;5023596;28;20057;-77
2023/08/07 09:53:44;;;;;;;2.70;1.10;;;;;;;;;;5028066;28;20041;-79
2023/08/07 09:56:10;;;;;;;4.65;1.48;;;;;;;;;;5025326;28;20132;-78
2023/08/07 09:58:37;;;;;;;3.30;1.50;;;;;;;;;;5018147;28;20041;-78
2023/08/07 10:01:05;;;;;;;3.88;1.48;;;;;;;;;;5022254;28;20057;-78
2023/08/07 10:03:32;;;;;;;4.95;1.45;;;;;;;;;;5019798;28;20038;-78
2023/08/07 10:06:03;;;;;;;5.63;1.48;;;;;;;;;;5022349;28;20072;-77
2023/08/07 10:08:30;;;;;;;5.07;1.40;;;;;;;;;;5025515;28;20479;-78
2023/08/07 10:10:59;;;;;;;2.88;1.25;;;;;;;;;;5022244;28;20041;-79
2023/08/07 10:13:26;;;;;;;4.78;1.83;;;;;;;;;;5025659;28;20056;-77
2023/08/07 10:15:52;;;;;;;4.22;1.50;;;;;;;;;;5023501;28;20127;-78
2023/08/07 10:18:21;;;;;;;4.10;1.27;;;;;;;;;;5030271;22;21206;-82
2023/08/07 10:20:48;;;;;;;2.72;1.50;;;;;;;;;;5048480;28;20041;-80
2023/08/07 10:23:17;;;;;;;3.40;1.38;;;;;;;;;;5042906;28;20049;-80
2023/08/07 10:25:46;;;;;;;3.90;2.05;;;;;;;;;;5046548;28;20068;-81
2023/08/07 10:28:17;;;;;;;3.38;1.73;;;;;;;;;;5045383;28;20057;-81
2023/08/07 10:30:44;;;;;;;3.70;1.42;;;;;;;;;;5026114;28;20077;-81
2023/08/07 10:33:12;;;;;;;4.97;2.13;;;;;;;;;;5031762;28;21072;-82
2023/08/07 10:35:46;;;;;;;5.70;1.67;;;;;;;;;;5027671;28;20105;-81
2023/08/07 10:38:12;;;;;;;5.50;2.05;;;;;;;;;;5035507;28;20037;-81
2023/08/07 10:41:00;;;;;;;2.83;1.20;;;;;;;;;;5042528;28;20045;-81
2023/08/07 10:43:29;;;;;;;3.75;1.40;;;;;;;;;;5028761;28;20053;-81
2023/08/07 10:45:55;;;;;;;3.53;1.60;;;;;;;;;;5024916;28;20046;-81
2023/08/07 10:48:22;;;;;;;3.72;1.35;;;;;;;;;;5031937;28;20042;-82
2023/08/07 10:50:58;;;;;;;3.85;1.52;;;;;;;;;;5028362;28;20050;-81
2023/08/07 10:53:31;;;;;;;3.38;1.20;;;;;;;;;;5027744;28;20084;-81
2023/08/07 10:55:58;;;;;;;3.58;1.45;;;;;;;;;;5020039;28;20042;-81
2023/08/07 10:58:26;;;;;;;4.70;1.48;;;;;;;;;;5022505;28;20108;-81
2023/08/07 11:01:21;;;;;;;3.28;1.33;;;;;;;;;;5017480;28;20058;-81
2023/08/07 11:03:50;;;;;;;4.75;1.70;;;;;;;;;;5019128;28;20053;-80
2023/08/07 11:06:17;;;;;;;6.95;2.95;;;;;;;;;;5021400;28;20046;-81
2023/08/07 11:08:44;;;;;;;3.78;1.70;;;;;;;;;;5030240;28;20069;-81
2023/08/07 11:11:10;;;;;;;3.20;1.30;;;;;;;;;;5019874;28;20046;-80
2023/08/07 11:13:37;;;;;;;3.42;1.42;;;;;;;;;;5022688;28;20050;-81
2023/08/07 11:16:06;;;;;;;2.92;1.25;;;;;;;;;;5016427;28;20049;-80
2023/08/07 11:18:32;;;;;;;2.97;1.33;;;;;;;;;;5015093;28;20515;-81
2023/08/07 11:21:01;;;;;;;3.72;1.42;;;;;;;;;;5014260;28;20408;-80
2023/08/07 11:23:28;;;;;;;4.32;1.20;;;;;;;;;;5014571;28;20050;-80
2023/08/07 11:25:55;;;;;;;4.40;1.60;;;;;;;;;;5022583;28;20053;-80
2023/08/07 11:28:23;;;;;;;4.13;1.48;;;;;;;;;;5021203;28;20735;-81
2023/08/07 11:30:51;;;;;;;3.50;1.65;;;;;;;;;;5023055;28;20132;-80
2023/08/07 11:33:20;;;;;;;3.22;1.35;;;;;;;;;;5025347;28;20068;-80
2023/08/07 11:35:47;;;;;;;3.78;1.58;;;;;;;;;;5016481;28;20069;-80
2023/08/07 11:38:17;;;;;;;2.72;1.25;;;;;;;;;;5030412;28;20306;-87
2023/08/07 11:40:43;;;;;;;3.47;1.17;;;;;;;;;;5025211;28;20045;-83
2023/08/07 11:43:10;;;;;;;2.70;1.20;;;;;;;;;;5023963;28;20080;-83
2023/08/07 11:45:37;;;;;;;4.80;1.85;;;;;;;;;;5028394;28;20069;-80
2023/08/07 11:48:04;;;;;;;3.33;1.63;;;;;;;;;;5030160;28;20109;-84
2023/08/07 11:50:32;;;;;;;4.78;1.77;;;;;;;;;;5027245;28;20067;-80
2023/08/07 11:53:00;;;;;;;3.83;1.60;;;;;;;;;;5014948;28;20053;-81
2023/08/07 11:55:30;;;;;;;4.00;1.38;;;;;;;;;;5010478;28;20061;-81
2023/08/07 11:57:56;;;;;;;3.63;1.33;;;;;;;;;;5013652;28;20054;-81
2023/08/07 12:00:27;;;;;;;2.75;1.45;;;;;;;;;;5014923;28;20299;-80
2023/08/07 12:02:54;;;;;;;3.30;1.50;;;;;;;;;;5013308;28;20050;-80
2023/08/07 12:05:20;;;;;;;3.78;1.30;;;;;;;;;;5008727;28;20468;-80
2023/08/07 12:07:49;;;;;;;2.83;1.33;;;;;;;;;;5021089;28;20053;-81
2023/08/07 12:10:16;;;;;;;2.42;1.30;;;;;;;;;;5026954;28;20125;-80
2023/08/07 12:12:44;;;;;;;2.67;1.17;;;;;;;;;;5036844;28;20530;-81
2023/08/07 12:15:11;;;;;;;2.60;1.30;;;;;;;;;;5031072;28;20052;-80
2023/08/07 12:17:38;;;;;;;2.35;1.20;;;;;;;;;;5026554;28;20137;-81
2023/08/07 12:20:07;;;;;;;3.47;1.40;;;;;;;;;;5024354;28;20049;-81
2023/08/07 12:22:34;;;;;;;3.17;1.38;;;;;;;;;;5029142;28;20042;-81
2023/08/07 12:25:02;;;;;;;3.88;1.70;;;;;;;;;;5028303;28;20042;-81
2023/08/07 12:27:28;;;;;;;3.67;1.33;;;;;;;;;;5028747;28;20253;-81
2023/08/07 12:29:55;;;;;;;2.92;1.35;;;;;;;;;;5015878;28;20069;-80
2023/08/07 12:32:22;;;;;;;4.38;1.92;;;;;;;;;;5023623;28;20507;-81
2023/08/07 12:34:50;;;;;;;3.70;1.20;;;;;;;;;;5038867;28;20065;-79
2023/08/07 12:37:16;;;;;;;4.28;1.70;;;;;;;;;;5022646;28;20125;-79
2023/08/07 12:39:43;;;;;;;3.00;1.25;;;;;;;;;;5027954;28;20171;-78
2023/08/07 12:42:11;;;;;;;3.45;1.35;;;;;;;;;;5031804;28;20140;-80
2023/08/07 12:44:37;;;;;;;4.07;1.50;;;;;;;;;;5015494;28;20046;-80
2023/08/07 12:47:04;;;;;;;3.15;1.30;;;;;;;;;;5023819;28;20077;-80
2023/08/07 12:49:31;;;;;;;3.17;1.00;;;;;;;;;;5015689;28;20057;-81
2023/08/07 12:51:57;;;;;;;2.75;1.30;;;;;;;;;;5023780;28;20118;-79
2023/08/07 12:54:24;;;;;;;1.88;1.13;;;;;;;;;;5028090;28;20423;-81
2023/08/07 12:56:51;;;;;;;2.50;1.20;;;;;;;;;;5035402;28;20446;-82
2023/08/07 12:59:19;;;;;;;3.15;1.30;;;;;;;;;;5029015;28;20069;-82
2023/08/07 13:01:45;;;;;;;2.55;1.30;;;;;;;;;;5025110;28;20047;-82
2023/08/07 13:04:14;;;;;;;4.25;1.40;;;;;;;;;;5033958;28;20060;-81
2023/08/07 13:06:41;;;;;;;2.92;1.42;;;;;;;;;;5026343;28;20050;-80
2023/08/07 13:09:08;;;;;;;2.83;1.50;;;;;;;;;;5037917;28;20081;-82
2023/08/07 13:11:34;;;;;;;2.78;1.23;;;;;;;;;;5021199;28;20049;-80
2023/08/07 13:14:01;;;;;;;3.05;1.25;;;;;;;;;;5034484;28;20049;-80
2023/08/07 13:16:28;;;;;;;1.23;0.90;;;;;;;;;;5025452;28;20049;-79
2023/08/07 13:18:55;;;;;;;2.50;1.17;;;;;;;;;;5027853;28;20041;-81
2023/08/07 13:21:22;;;;;;;3.50;1.20;;;;;;;;;;5027464;28;20046;-82
2023/08/07 13:23:49;;;;;;;2.28;1.10;;;;;;;;;;5028637;28;20153;-81
2023/08/07 13:26:17;;;;;;;2.17;1.27;;;;;;;;;;5028097;28;20056;-80
2023/08/07 13:28:44;;;;;;;3.65;1.60;;;;;;;;;;5020174;28;20069;-80
2023/08/07 13:31:10;;;;;;;3.33;1.00;;;;;;;;;;5024163;28;20052;-80
2023/08/07 13:33:38;;;;;;;3.55;1.10;;;;;;;;;;5010662;28;20086;-81
2023/08/07 13:36:05;;;;;;;3.15;1.13;;;;;;;;;;5020276;28;20042;-81
2023/08/07 13:38:32;;;;;;;3.00;1.23;;;;;;;;;;5015573;28;20508;-82
2023/08/07 13:40:58;;;;;;;5.28;1.75;;;;;;;;;;5006233;28;20041;-82
2023/08/07 13:43:25;;;;;;;3.33;1.20;;;;;;;;;;5031722;28;20499;-79
2023/08/07 13:45:51;;;;;;;3.13;1.30;;;;;;;;;;5022761;28;20056;-80
2023/08/07 13:48:18;;;;;;;2.53;1.20;;;;;;;;;;5029741;28;20434;-80
2023/08/07 13:50:46;;;;;;;3.47;1.20;;;;;;;;;;5023031;28;21748;-81
2023/08/07 13:53:13;;;;;;;2.33;1.20;;;;;;;;;;5031070;28;20142;-80
2023/08/07 13:55:40;;;;;;;2.58;1.17;;;;;;;;;;5041362;28;20147;-80
2023/08/07 13:58:06;;;;;;;3.70;1.10;;;;;;;;;;5028443;28;20058;-79
2023/08/07 14:00:34;;;;;;;3.13;1.30;;;;;;;;;;5031098;28;20069;-81
2023/08/07 14:03:00;;;;;;;5.47;2.30;;;;;;;;;;5038245;28;20045;-81
2023/08/07 14:05:27;;;;;;;1.98;1.05;;;;;;;;;;5029335;28;20118;-81
2023/08/07 14:07:57;;;;;;;2.58;0.95;;;;;;;;;;5026985;28;20054;-80
2023/08/07 14:10:23;;;;;;;3.13;0.80;;;;;;;;;;5034762;28;20061;-81
2023/08/07 14:12:50;;;;;;;2.38;1.10;;;;;;;;;;5035330;28;20073;-81
2023/08/07 14:15:17;;;;;;;3.22;1.00;;;;;;;;;;5029330;28;20588;-80
2023/08/07 14:17:43;;;;;;;2.20;1.10;;;;;;;;;;5019053;28;20050;-81
2023/08/07 14:20:10;;;;;;;3.45;1.08;;;;;;;;;;5027097;28;20050;-81
2023/08/07 14:22:38;;;;;;;2.10;1.00;;;;;;;;;;5024237;28;20488;-79
2023/08/07 14:25:06;;;;;;;2.40;1.10;;;;;;;;;;5027624;28;20042;-80
2023/08/07 14:27:33;;;;;;;2.58;1.10;;;;;;;;;;5035352;28;20068;-81
2023/08/07 14:30:00;;;;;;;6.50;1.60;;;;;;;;;;5029424;28;20053;-81
2023/08/07 14:32:26;;;;;;;2.80;1.13;;;;;;;;;;5016864;28;20062;-81
2023/08/07 14:34:53;;;;;;;2.58;1.30;;;;;;;;;;5020092;28;20167;-81
2023/08/07 14:37:19;;;;;;;3.40;1.30;;;;;;;;;;5019516;28;20072;-80
2023/08/07 14:39:46;;;;;;;3.47;1.35;;;;;;;;;;5025070;28;20531;-81
2023/08/07 14:42:14;;;;;;;2.90;1.20;;;;;;;;;;5032294;28;20056;-79
2023/08/07 14:44:41;;;;;;;2.00;1.30;;;;;;;;;;5015770;28;20072;-79
2023/08/07 14:47:07;;;;;;;3.15;1.27;;;;;;;;;;5025482;28;20045;-78